Lake Nacimiento, California
Current Conditions -  °F | °C
As of 3:53 PM on Wednesday 28 Jan 2015 (Local Time) from KPRB Reporting Station
Clear Clear  
Wind Chill: 59°   Ceiling: Unl
Heat Index: 59°   Visibility: 10mi
Dew Point: 48°   Wind: 12mph
Humidity: 67%   Direction: 90°E
Pressure: 30.15"   Gusts: NA
Location:  35.6618°N, 120.707°W
Report Text: KPRB 282353Z AUTO 09010KT 10SM CLR 15/09 A3015 RMK AO2 SLP209 T01500089 10161 20067 55009 TSNO
Loading
Personal Weather Stations






























Interactive Weather Map New forecast layout! Learn more

10-Day Weather Forecast

Advertisements
Track Severe Weather on mobile